sensor_id;sensor_type;location;lat;lon;timestamp;P1;durP1;ratioP1;P2;durP2;ratioP2
37299;SDS011;23184;51.902;12.836;2024-01-06T00:00:33;22.65;;;10.52;;
37299;SDS011;23184;51.902;12.836;2024-01-06T00:02:59;21.20;;;10.40;;
37299;SDS011;23184;51.902;12.836;2024-01-06T00:05:25;21.38;;;9.80;;
37299;SDS011;23184;51.902;12.836;2024-01-06T00:07:50;32.15;;;12.95;;
37299;SDS011;23184;51.902;12.836;2024-01-06T00:10:16;36.63;;;10.98;;
37299;SDS011;23184;51.902;12.836;2024-01-06T00:12:42;91.95;;;13.73;;
37299;SDS011;23184;51.902;12.836;2024-01-06T00:15:08;181.32;;;16.98;;
37299;SDS011;23184;51.902;12.836;2024-01-06T00:17:33;55.45;;;11.23;;
37299;SDS011;23184;51.902;12.836;2024-01-06T00:19:59;104.28;;;14.95;;
37299;SDS011;23184;51.902;12.836;2024-01-06T00:22:25;68.60;;;11.68;;
37299;SDS011;23184;51.902;12.836;2024-01-06T00:24:51;55.00;;;9.80;;
37299;SDS011;23184;51.902;12.836;2024-01-06T00:27:16;37.55;;;10.32;;
37299;SDS011;23184;51.902;12.836;2024-01-06T00:29:42;54.42;;;10.93;;
37299;SDS011;23184;51.902;12.836;2024-01-06T00:32:07;123.20;;;13.45;;
37299;SDS011;23184;51.902;12.836;2024-01-06T00:34:33;72.40;;;11.35;;
37299;SDS011;23184;51.902;12.836;2024-01-06T00:36:58;98.68;;;12.38;;
37299;SDS011;23184;51.902;12.836;2024-01-06T00:39:24;47.25;;;10.52;;
37299;SDS011;23184;51.902;12.836;2024-01-06T00:41:49;82.82;;;11.38;;
37299;SDS011;23184;51.902;12.836;2024-01-06T00:44:15;115.95;;;13.50;;
37299;SDS011;23184;51.902;12.836;2024-01-06T00:46:40;46.53;;;10.30;;
37299;SDS011;23184;51.902;12.836;2024-01-06T00:49:05;89.38;;;11.88;;
37299;SDS011;23184;51.902;12.836;2024-01-06T00:51:31;70.35;;;10.85;;
37299;SDS011;23184;51.902;12.836;2024-01-06T00:53:57;37.45;;;9.90;;
37299;SDS011;23184;51.902;12.836;2024-01-06T00:56:22;54.47;;;11.57;;
37299;SDS011;23184;51.902;12.836;2024-01-06T00:58:48;61.90;;;10.77;;
37299;SDS011;23184;51.902;12.836;2024-01-06T01:01:14;61.38;;;11.50;;
37299;SDS011;23184;51.902;12.836;2024-01-06T01:03:39;66.57;;;10.75;;
37299;SDS011;23184;51.902;12.836;2024-01-06T01:06:05;76.38;;;11.85;;
37299;SDS011;23184;51.902;12.836;2024-01-06T01:08:30;71.45;;;11.45;;
37299;SDS011;23184;51.902;12.836;2024-01-06T01:10:56;80.20;;;12.45;;
37299;SDS011;23184;51.902;12.836;2024-01-06T01:13:22;99.25;;;12.45;;
37299;SDS011;23184;51.902;12.836;2024-01-06T01:15:48;65.30;;;12.02;;
37299;SDS011;23184;51.902;12.836;2024-01-06T01:18:14;74.68;;;12.10;;
37299;SDS011;23184;51.902;12.836;2024-01-06T01:20:39;81.78;;;13.70;;
37299;SDS011;23184;51.902;12.836;2024-01-06T01:23:08;53.60;;;11.85;;
37299;SDS011;23184;51.902;12.836;2024-01-06T01:25:33;83.53;;;13.07;;
37299;SDS011;23184;51.902;12.836;2024-01-06T01:27:59;112.43;;;13.82;;
37299;SDS011;23184;51.902;12.836;2024-01-06T01:30:24;85.47;;;12.25;;
37299;SDS011;23184;51.902;12.836;2024-01-06T01:32:50;44.78;;;11.60;;
37299;SDS011;23184;51.902;12.836;2024-01-06T01:35:15;26.77;;;10.65;;
37299;SDS011;23184;51.902;12.836;2024-01-06T01:37:41;46.08;;;11.65;;
37299;SDS011;23184;51.902;12.836;2024-01-06T01:40:07;90.75;;;14.40;;
37299;SDS011;23184;51.902;12.836;2024-01-06T01:42:32;72.10;;;12.93;;
37299;SDS011;23184;51.902;12.836;2024-01-06T01:44:58;73.22;;;12.32;;
37299;SDS011;23184;51.902;12.836;2024-01-06T01:47:24;27.25;;;10.45;;
37299;SDS011;23184;51.902;12.836;2024-01-06T01:49:49;40.88;;;12.65;;
37299;SDS011;23184;51.902;12.836;2024-01-06T01:52:15;39.78;;;12.00;;
37299;SDS011;23184;51.902;12.836;2024-01-06T01:54:41;41.38;;;11.35;;
37299;SDS011;23184;51.902;12.836;2024-01-06T01:57:07;66.45;;;12.88;;
37299;SDS011;23184;51.902;12.836;2024-01-06T01:59:35;59.53;;;13.13;;
37299;SDS011;23184;51.902;12.836;2024-01-06T02:02:01;31.23;;;12.07;;
37299;SDS011;23184;51.902;12.836;2024-01-06T02:04:27;72.72;;;13.50;;
37299;SDS011;23184;51.902;12.836;2024-01-06T02:06:53;78.50;;;13.68;;
37299;SDS011;23184;51.902;12.836;2024-01-06T02:09:19;89.47;;;14.60;;
37299;SDS011;23184;51.902;12.836;2024-01-06T02:11:48;126.35;;;16.90;;
37299;SDS011;23184;51.902;12.836;2024-01-06T02:14:13;90.03;;;15.35;;
37299;SDS011;23184;51.902;12.836;2024-01-06T02:16:38;78.03;;;14.40;;
37299;SDS011;23184;51.902;12.836;2024-01-06T02:19:04;87.78;;;16.10;;
37299;SDS011;23184;51.902;12.836;2024-01-06T02:21:31;69.85;;;13.85;;
37299;SDS011;23184;51.902;12.836;2024-01-06T02:24:00;73.60;;;13.95;;
37299;SDS011;23184;51.902;12.836;2024-01-06T02:26:26;38.58;;;12.88;;
37299;SDS011;23184;51.902;12.836;2024-01-06T02:28:51;45.38;;;13.10;;
37299;SDS011;23184;51.902;12.836;2024-01-06T02:31:17;48.97;;;12.57;;
37299;SDS011;23184;51.902;12.836;2024-01-06T02:33:42;33.33;;;12.32;;
37299;SDS011;23184;51.902;12.836;2024-01-06T02:36:08;27.42;;;11.85;;
37299;SDS011;23184;51.902;12.836;2024-01-06T02:38:33;53.72;;;13.23;;
37299;SDS011;23184;51.902;12.836;2024-01-06T02:40:58;64.78;;;13.45;;
37299;SDS011;23184;51.902;12.836;2024-01-06T02:43:24;32.67;;;12.70;;
37299;SDS011;23184;51.902;12.836;2024-01-06T02:45:49;80.43;;;14.90;;
37299;SDS011;23184;51.902;12.836;2024-01-06T02:48:15;120.50;;;15.68;;
37299;SDS011;23184;51.902;12.836;2024-01-06T02:50:41;94.95;;;14.85;;
37299;SDS011;23184;51.902;12.836;2024-01-06T02:53:06;101.47;;;15.18;;
37299;SDS011;23184;51.902;12.836;2024-01-06T02:55:32;29.20;;;12.05;;
37299;SDS011;23184;51.902;12.836;2024-01-06T02:57:57;86.13;;;13.98;;
37299;SDS011;23184;51.902;12.836;2024-01-06T03:00:22;35.40;;;11.73;;
37299;SDS011;23184;51.902;12.836;2024-01-06T03:02:48;76.10;;;14.02;;
37299;SDS011;23184;51.902;12.836;2024-01-06T03:05:13;62.67;;;15.40;;
37299;SDS011;23184;51.902;12.836;2024-01-06T03:07:39;93.72;;;15.40;;
37299;SDS011;23184;51.902;12.836;2024-01-06T03:10:04;32.17;;;12.98;;
37299;SDS011;23184;51.902;12.836;2024-01-06T03:12:30;55.72;;;14.20;;
37299;SDS011;23184;51.902;12.836;2024-01-06T03:14:56;56.90;;;13.32;;
37299;SDS011;23184;51.902;12.836;2024-01-06T03:17:21;45.60;;;12.63;;
37299;SDS011;23184;51.902;12.836;2024-01-06T03:19:46;119.05;;;15.90;;
37299;SDS011;23184;51.902;12.836;2024-01-06T03:22:12;57.97;;;13.95;;
37299;SDS011;23184;51.902;12.836;2024-01-06T03:24:37;43.58;;;14.30;;
37299;SDS011;23184;51.902;12.836;2024-01-06T03:27:04;59.60;;;13.10;;
37299;SDS011;23184;51.902;12.836;2024-01-06T03:29:30;95.57;;;16.23;;
37299;SDS011;23184;51.902;12.836;2024-01-06T03:31:55;46.35;;;13.13;;
37299;SDS011;23184;51.902;12.836;2024-01-06T03:34:21;46.17;;;13.20;;
37299;SDS011;23184;51.902;12.836;2024-01-06T03:36:46;40.65;;;13.27;;
37299;SDS011;23184;51.902;12.836;2024-01-06T03:39:11;65.85;;;14.77;;
37299;SDS011;23184;51.902;12.836;2024-01-06T03:41:39;120.70;;;17.75;;
37299;SDS011;23184;51.902;12.836;2024-01-06T03:44:04;47.17;;;13.43;;
37299;SDS011;23184;51.902;12.836;2024-01-06T03:46:30;105.40;;;14.48;;
37299;SDS011;23184;51.902;12.836;2024-01-06T03:48:55;101.47;;;15.88;;
37299;SDS011;23184;51.902;12.836;2024-01-06T03:51:20;101.43;;;16.13;;
37299;SDS011;23184;51.902;12.836;2024-01-06T03:53:47;124.30;;;17.80;;
37299;SDS011;23184;51.902;12.836;2024-01-06T03:56:12;45.83;;;12.73;;
37299;SDS011;23184;51.902;12.836;2024-01-06T03:58:38;101.53;;;15.50;;
37299;SDS011;23184;51.902;12.836;2024-01-06T04:01:03;35.83;;;13.23;;
37299;SDS011;23184;51.902;12.836;2024-01-06T04:03:29;65.78;;;15.60;;
37299;SDS011;23184;51.902;12.836;2024-01-06T04:05:54;70.88;;;14.60;;
37299;SDS011;23184;51.902;12.836;2024-01-06T04:08:20;79.57;;;15.60;;
37299;SDS011;23184;51.902;12.836;2024-01-06T04:10:45;145.02;;;17.90;;
37299;SDS011;23184;51.902;12.836;2024-01-06T04:13:11;144.38;;;16.83;;
37299;SDS011;23184;51.902;12.836;2024-01-06T04:15:37;148.07;;;17.02;;
37299;SDS011;23184;51.902;12.836;2024-01-06T04:18:03;111.60;;;14.55;;
37299;SDS011;23184;51.902;12.836;2024-01-06T04:20:29;149.93;;;18.08;;
37299;SDS011;23184;51.902;12.836;2024-01-06T04:22:55;121.85;;;17.27;;
37299;SDS011;23184;51.902;12.836;2024-01-06T04:25:20;154.35;;;18.42;;
37299;SDS011;23184;51.902;12.836;2024-01-06T04:27:46;121.22;;;16.85;;
37299;SDS011;23184;51.902;12.836;2024-01-06T04:30:13;140.73;;;16.63;;
37299;SDS011;23184;51.902;12.836;2024-01-06T04:32:39;93.43;;;14.52;;
37299;SDS011;23184;51.902;12.836;2024-01-06T04:35:05;95.40;;;15.15;;
37299;SDS011;23184;51.902;12.836;2024-01-06T04:37:31;92.88;;;14.75;;
37299;SDS011;23184;51.902;12.836;2024-01-06T04:39:56;92.30;;;15.18;;
37299;SDS011;23184;51.902;12.836;2024-01-06T04:42:22;65.07;;;14.65;;
37299;SDS011;23184;51.902;12.836;2024-01-06T04:44:48;101.95;;;15.80;;
37299;SDS011;23184;51.902;12.836;2024-01-06T04:47:14;122.72;;;16.85;;
37299;SDS011;23184;51.902;12.836;2024-01-06T04:49:40;53.45;;;14.98;;
37299;SDS011;23184;51.902;12.836;2024-01-06T04:52:05;95.85;;;15.38;;
37299;SDS011;23184;51.902;12.836;2024-01-06T04:54:31;145.65;;;18.33;;
37299;SDS011;23184;51.902;12.836;2024-01-06T04:56:57;35.70;;;12.85;;
37299;SDS011;23184;51.902;12.836;2024-01-06T04:59:23;77.60;;;14.98;;
37299;SDS011;23184;51.902;12.836;2024-01-06T05:01:49;78.90;;;16.25;;
37299;SDS011;23184;51.902;12.836;2024-01-06T05:04:16;85.40;;;14.48;;
37299;SDS011;23184;51.902;12.836;2024-01-06T05:06:41;82.25;;;15.38;;
37299;SDS011;23184;51.902;12.836;2024-01-06T05:09:07;118.90;;;17.60;;
37299;SDS011;23184;51.902;12.836;2024-01-06T05:11:32;110.55;;;16.90;;
37299;SDS011;23184;51.902;12.836;2024-01-06T05:13:58;73.40;;;15.27;;
37299;SDS011;23184;51.902;12.836;2024-01-06T05:16:23;108.32;;;18.58;;
37299;SDS011;23184;51.902;12.836;2024-01-06T05:18:48;84.10;;;15.70;;
37299;SDS011;23184;51.902;12.836;2024-01-06T05:21:14;92.13;;;18.05;;
37299;SDS011;23184;51.902;12.836;2024-01-06T05:23:39;59.78;;;13.88;;
37299;SDS011;23184;51.902;12.836;2024-01-06T05:26:05;51.03;;;14.10;;
37299;SDS011;23184;51.902;12.836;2024-01-06T05:28:31;64.32;;;14.95;;
37299;SDS011;23184;51.902;12.836;2024-01-06T05:30:56;78.25;;;16.10;;
37299;SDS011;23184;51.902;12.836;2024-01-06T05:33:22;106.50;;;17.02;;
37299;SDS011;23184;51.902;12.836;2024-01-06T05:35:48;70.40;;;15.93;;
37299;SDS011;23184;51.902;12.836;2024-01-06T05:38:13;83.35;;;16.20;;
37299;SDS011;23184;51.902;12.836;2024-01-06T05:40:39;61.97;;;13.57;;
37299;SDS011;23184;51.902;12.836;2024-01-06T05:43:04;83.75;;;14.52;;
37299;SDS011;23184;51.902;12.836;2024-01-06T05:45:30;93.97;;;15.77;;
37299;SDS011;23184;51.902;12.836;2024-01-06T05:47:55;96.55;;;14.73;;
37299;SDS011;23184;51.902;12.836;2024-01-06T05:50:21;65.28;;;14.32;;
37299;SDS011;23184;51.902;12.836;2024-01-06T05:52:46;73.88;;;14.25;;
37299;SDS011;23184;51.902;12.836;2024-01-06T05:55:13;119.88;;;14.45;;
37299;SDS011;23184;51.902;12.836;2024-01-06T05:57:39;133.63;;;14.65;;
37299;SDS011;23184;51.902;12.836;2024-01-06T06:00:07;95.68;;;14.05;;
37299;SDS011;23184;51.902;12.836;2024-01-06T06:02:36;86.93;;;13.55;;
37299;SDS011;23184;51.902;12.836;2024-01-06T06:05:01;106.20;;;13.80;;
37299;SDS011;23184;51.902;12.836;2024-01-06T06:07:27;91.13;;;15.48;;
37299;SDS011;23184;51.902;12.836;2024-01-06T06:09:52;90.22;;;13.07;;
37299;SDS011;23184;51.902;12.836;2024-01-06T06:12:18;115.55;;;14.75;;
37299;SDS011;23184;51.902;12.836;2024-01-06T06:14:44;81.78;;;12.93;;
37299;SDS011;23184;51.902;12.836;2024-01-06T06:17:09;95.45;;;14.40;;
37299;SDS011;23184;51.902;12.836;2024-01-06T06:19:35;89.68;;;15.00;;
37299;SDS011;23184;51.902;12.836;2024-01-06T06:22:00;97.13;;;13.90;;
37299;SDS011;23184;51.902;12.836;2024-01-06T06:24:26;106.25;;;15.18;;
37299;SDS011;23184;51.902;12.836;2024-01-06T06:26:51;66.00;;;12.63;;
37299;SDS011;23184;51.902;12.836;2024-01-06T06:29:17;93.72;;;14.05;;
37299;SDS011;23184;51.902;12.836;2024-01-06T06:31:42;56.38;;;13.35;;
37299;SDS011;23184;51.902;12.836;2024-01-06T06:34:09;67.78;;;13.93;;
37299;SDS011;23184;51.902;12.836;2024-01-06T06:36:35;69.13;;;13.25;;
37299;SDS011;23184;51.902;12.836;2024-01-06T06:39:01;65.13;;;12.90;;
37299;SDS011;23184;51.902;12.836;2024-01-06T06:41:29;138.32;;;14.70;;
37299;SDS011;23184;51.902;12.836;2024-01-06T06:43:54;138.27;;;15.82;;
37299;SDS011;23184;51.902;12.836;2024-01-06T06:46:20;78.85;;;13.90;;
37299;SDS011;23184;51.902;12.836;2024-01-06T06:48:45;80.03;;;14.75;;
37299;SDS011;23184;51.902;12.836;2024-01-06T06:51:11;55.70;;;12.32;;
37299;SDS011;23184;51.902;12.836;2024-01-06T06:53:36;38.80;;;11.68;;
37299;SDS011;23184;51.902;12.836;2024-01-06T06:56:02;135.63;;;16.38;;
37299;SDS011;23184;51.902;12.836;2024-01-06T06:58:27;59.08;;;11.98;;
37299;SDS011;23184;51.902;12.836;2024-01-06T07:00:53;123.80;;;14.60;;
37299;SDS011;23184;51.902;12.836;2024-01-06T07:03:19;87.88;;;15.55;;
37299;SDS011;23184;51.902;12.836;2024-01-06T07:05:44;66.38;;;12.40;;
37299;SDS011;23184;51.902;12.836;2024-01-06T07:08:10;49.53;;;13.85;;
37299;SDS011;23184;51.902;12.836;2024-01-06T07:10:35;52.45;;;12.38;;
37299;SDS011;23184;51.902;12.836;2024-01-06T07:13:01;55.35;;;12.70;;
37299;SDS011;23184;51.902;12.836;2024-01-06T07:15:26;50.25;;;12.13;;
37299;SDS011;23184;51.902;12.836;2024-01-06T07:17:52;43.65;;;12.13;;
37299;SDS011;23184;51.902;12.836;2024-01-06T07:20:17;66.97;;;14.40;;
37299;SDS011;23184;51.902;12.836;2024-01-06T07:22:43;34.50;;;11.38;;
37299;SDS011;23184;51.902;12.836;2024-01-06T07:25:08;45.75;;;12.18;;
37299;SDS011;23184;51.902;12.836;2024-01-06T07:27:34;91.55;;;15.15;;
37299;SDS011;23184;51.902;12.836;2024-01-06T07:29:59;32.38;;;12.57;;
37299;SDS011;23184;51.902;12.836;2024-01-06T07:32:25;32.60;;;12.48;;
37299;SDS011;23184;51.902;12.836;2024-01-06T07:34:51;65.90;;;14.30;;
37299;SDS011;23184;51.902;12.836;2024-01-06T07:37:16;85.75;;;15.50;;
37299;SDS011;23184;51.902;12.836;2024-01-06T07:39:42;57.28;;;14.50;;
37299;SDS011;23184;51.902;12.836;2024-01-06T07:42:08;67.30;;;15.80;;
37299;SDS011;23184;51.902;12.836;2024-01-06T07:44:33;61.38;;;13.93;;
37299;SDS011;23184;51.902;12.836;2024-01-06T07:46:59;69.05;;;14.68;;
37299;SDS011;23184;51.902;12.836;2024-01-06T07:49:24;37.92;;;14.15;;
37299;SDS011;23184;51.902;12.836;2024-01-06T07:51:50;46.15;;;14.98;;
37299;SDS011;23184;51.902;12.836;2024-01-06T07:54:15;69.68;;;16.02;;
37299;SDS011;23184;51.902;12.836;2024-01-06T07:56:40;47.35;;;14.63;;
37299;SDS011;23184;51.902;12.836;2024-01-06T07:59:08;78.45;;;15.93;;
37299;SDS011;23184;51.902;12.836;2024-01-06T08:01:34;71.75;;;16.90;;
37299;SDS011;23184;51.902;12.836;2024-01-06T08:04:00;49.15;;;15.18;;
37299;SDS011;23184;51.902;12.836;2024-01-06T08:06:25;53.85;;;16.35;;
37299;SDS011;23184;51.902;12.836;2024-01-06T08:08:51;73.55;;;15.73;;
37299;SDS011;23184;51.902;12.836;2024-01-06T08:11:16;85.90;;;17.63;;
37299;SDS011;23184;51.902;12.836;2024-01-06T08:13:42;85.55;;;18.77;;
37299;SDS011;23184;51.902;12.836;2024-01-06T08:16:07;63.10;;;17.70;;
37299;SDS011;23184;51.902;12.836;2024-01-06T08:18:33;64.00;;;18.02;;
37299;SDS011;23184;51.902;12.836;2024-01-06T08:20:58;52.40;;;15.90;;
37299;SDS011;23184;51.902;12.836;2024-01-06T08:23:24;60.72;;;18.33;;
37299;SDS011;23184;51.902;12.836;2024-01-06T08:25:49;68.68;;;18.33;;
37299;SDS011;23184;51.902;12.836;2024-01-06T08:28:15;78.63;;;19.17;;
37299;SDS011;23184;51.902;12.836;2024-01-06T08:30:41;63.28;;;17.73;;
37299;SDS011;23184;51.902;12.836;2024-01-06T08:33:07;55.85;;;16.80;;
37299;SDS011;23184;51.902;12.836;2024-01-06T08:35:33;80.72;;;18.30;;
37299;SDS011;23184;51.902;12.836;2024-01-06T08:37:58;78.00;;;19.65;;
37299;SDS011;23184;51.902;12.836;2024-01-06T08:40:24;84.10;;;18.92;;
37299;SDS011;23184;51.902;12.836;2024-01-06T08:42:49;59.60;;;17.73;;
37299;SDS011;23184;51.902;12.836;2024-01-06T08:45:14;63.22;;;17.35;;
37299;SDS011;23184;51.902;12.836;2024-01-06T08:47:40;83.55;;;18.83;;
37299;SDS011;23184;51.902;12.836;2024-01-06T08:50:06;72.00;;;18.83;;
37299;SDS011;23184;51.902;12.836;2024-01-06T08:52:32;58.10;;;17.80;;
37299;SDS011;23184;51.902;12.836;2024-01-06T08:54:57;96.50;;;20.60;;
37299;SDS011;23184;51.902;12.836;2024-01-06T08:57:23;76.25;;;20.92;;
37299;SDS011;23184;51.902;12.836;2024-01-06T08:59:48;75.35;;;20.50;;
37299;SDS011;23184;51.902;12.836;2024-01-06T09:02:14;100.20;;;23.65;;
37299;SDS011;23184;51.902;12.836;2024-01-06T09:04:39;80.88;;;21.38;;
37299;SDS011;23184;51.902;12.836;2024-01-06T09:07:05;78.38;;;21.73;;
37299;SDS011;23184;51.902;12.836;2024-01-06T09:09:31;88.53;;;21.80;;
37299;SDS011;23184;51.902;12.836;2024-01-06T09:11:56;86.35;;;21.67;;
37299;SDS011;23184;51.902;12.836;2024-01-06T09:14:22;92.75;;;22.75;;
37299;SDS011;23184;51.902;12.836;2024-01-06T09:16:47;117.88;;;24.50;;
37299;SDS011;23184;51.902;12.836;2024-01-06T09:19:13;89.72;;;23.25;;
37299;SDS011;23184;51.902;12.836;2024-01-06T09:21:38;79.47;;;22.52;;
37299;SDS011;23184;51.902;12.836;2024-01-06T09:24:04;109.80;;;25.73;;
37299;SDS011;23184;51.902;12.836;2024-01-06T09:26:31;72.75;;;22.48;;
37299;SDS011;23184;51.902;12.836;2024-01-06T09:28:59;71.68;;;22.77;;
37299;SDS011;23184;51.902;12.836;2024-01-06T09:31:25;72.47;;;22.13;;
37299;SDS011;23184;51.902;12.836;2024-01-06T09:33:50;63.85;;;21.10;;
37299;SDS011;23184;51.902;12.836;2024-01-06T09:36:16;67.93;;;23.25;;
37299;SDS011;23184;51.902;12.836;2024-01-06T09:38:42;66.50;;;22.45;;
37299;SDS011;23184;51.902;12.836;2024-01-06T09:41:08;70.32;;;24.38;;
37299;SDS011;23184;51.902;12.836;2024-01-06T09:43:33;65.43;;;24.23;;
37299;SDS011;23184;51.902;12.836;2024-01-06T09:46:05;73.40;;;23.13;;
37299;SDS011;23184;51.902;12.836;2024-01-06T09:48:39;73.10;;;23.77;;
37299;SDS011;23184;51.902;12.836;2024-01-06T09:51:06;68.88;;;22.55;;
37299;SDS011;23184;51.902;12.836;2024-01-06T09:53:36;69.78;;;23.58;;
37299;SDS011;23184;51.902;12.836;2024-01-06T09:56:05;56.15;;;20.40;;
37299;SDS011;23184;51.902;12.836;2024-01-06T09:58:32;62.78;;;21.40;;
37299;SDS011;23184;51.902;12.836;2024-01-06T10:01:00;56.63;;;20.73;;
37299;SDS011;23184;51.902;12.836;2024-01-06T10:03:26;60.67;;;22.30;;
37299;SDS011;23184;51.902;12.836;2024-01-06T10:05:52;76.25;;;24.02;;
37299;SDS011;23184;51.902;12.836;2024-01-06T10:08:18;63.13;;;22.50;;
37299;SDS011;23184;51.902;12.836;2024-01-06T10:10:44;69.68;;;24.13;;
37299;SDS011;23184;51.902;12.836;2024-01-06T10:13:10;67.15;;;24.63;;
37299;SDS011;23184;51.902;12.836;2024-01-06T10:15:35;69.47;;;25.25;;
37299;SDS011;23184;51.902;12.836;2024-01-06T10:18:01;63.88;;;23.75;;
37299;SDS011;23184;51.902;12.836;2024-01-06T10:20:28;75.50;;;26.83;;
37299;SDS011;23184;51.902;12.836;2024-01-06T10:22:54;72.07;;;24.80;;
37299;SDS011;23184;51.902;12.836;2024-01-06T10:25:21;67.40;;;24.98;;
37299;SDS011;23184;51.902;12.836;2024-01-06T10:27:48;82.35;;;26.45;;
37299;SDS011;23184;51.902;12.836;2024-01-06T10:30:14;78.65;;;26.85;;
37299;SDS011;23184;51.902;12.836;2024-01-06T10:32:43;84.07;;;27.38;;
37299;SDS011;23184;51.902;12.836;2024-01-06T10:35:09;85.45;;;29.02;;
37299;SDS011;23184;51.902;12.836;2024-01-06T10:37:34;90.47;;;28.33;;
37299;SDS011;23184;51.902;12.836;2024-01-06T10:40:14;91.85;;;27.92;;
37299;SDS011;23184;51.902;12.836;2024-01-06T10:42:44;93.18;;;30.70;;
37299;SDS011;23184;51.902;12.836;2024-01-06T10:45:10;82.35;;;29.50;;
37299;SDS011;23184;51.902;12.836;2024-01-06T10:47:40;96.80;;;30.25;;
37299;SDS011;23184;51.902;12.836;2024-01-06T10:50:10;87.40;;;29.77;;
37299;SDS011;23184;51.902;12.836;2024-01-06T10:52:37;92.13;;;30.98;;
37299;SDS011;23184;51.902;12.836;2024-01-06T10:55:04;90.47;;;30.13;;
37299;SDS011;23184;51.902;12.836;2024-01-06T10:57:30;85.65;;;29.00;;
37299;SDS011;23184;51.902;12.836;2024-01-06T10:59:57;90.30;;;30.52;;
37299;SDS011;23184;51.902;12.836;2024-01-06T11:02:23;83.63;;;28.25;;
37299;SDS011;23184;51.902;12.836;2024-01-06T11:04:50;77.43;;;27.60;;
37299;SDS011;23184;51.902;12.836;2024-01-06T11:07:17;80.45;;;29.15;;
37299;SDS011;23184;51.902;12.836;2024-01-06T11:09:50;82.72;;;27.60;;
37299;SDS011;23184;51.902;12.836;2024-01-06T11:12:23;77.38;;;29.52;;
37299;SDS011;23184;51.902;12.836;2024-01-06T11:14:48;79.60;;;26.65;;
37299;SDS011;23184;51.902;12.836;2024-01-06T11:17:34;76.90;;;27.23;;
37299;SDS011;23184;51.902;12.836;2024-01-06T11:20:18;79.43;;;28.42;;
37299;SDS011;23184;51.902;12.836;2024-01-06T11:22:45;71.90;;;25.20;;
37299;SDS011;23184;51.902;12.836;2024-01-06T11:25:14;74.25;;;28.42;;
37299;SDS011;23184;51.902;12.836;2024-01-06T11:27:42;78.72;;;27.73;;
37299;SDS011;23184;51.902;12.836;2024-01-06T11:30:18;86.85;;;28.77;;
37299;SDS011;23184;51.902;12.836;2024-01-06T11:32:44;99.10;;;30.83;;
37299;SDS011;23184;51.902;12.836;2024-01-06T11:35:12;90.22;;;30.00;;
37299;SDS011;23184;51.902;12.836;2024-01-06T11:43:06;96.07;;;30.83;;
37299;SDS011;23184;51.902;12.836;2024-01-06T11:45:41;99.10;;;31.42;;
37299;SDS011;23184;51.902;12.836;2024-01-06T11:48:08;91.95;;;30.00;;
37299;SDS011;23184;51.902;12.836;2024-01-06T11:50:35;95.10;;;28.90;;
37299;SDS011;23184;51.902;12.836;2024-01-06T11:53:02;101.15;;;31.45;;
37299;SDS011;23184;51.902;12.836;2024-01-06T11:55:29;105.55;;;30.33;;
37299;SDS011;23184;51.902;12.836;2024-01-06T11:57:57;106.28;;;31.52;;
37299;SDS011;23184;51.902;12.836;2024-01-06T12:00:26;101.35;;;31.35;;
37299;SDS011;23184;51.902;12.836;2024-01-06T12:02:56;97.00;;;30.48;;
37299;SDS011;23184;51.902;12.836;2024-01-06T12:05:22;104.93;;;33.88;;
37299;SDS011;23184;51.902;12.836;2024-01-06T12:10:23;105.57;;;32.05;;
37299;SDS011;23184;51.902;12.836;2024-01-06T12:13:05;102.60;;;30.58;;
37299;SDS011;23184;51.902;12.836;2024-01-06T12:15:33;119.47;;;32.22;;
37299;SDS011;23184;51.902;12.836;2024-01-06T12:18:02;109.78;;;31.55;;
37299;SDS011;23184;51.902;12.836;2024-01-06T12:20:28;118.00;;;33.78;;
37299;SDS011;23184;51.902;12.836;2024-01-06T12:22:54;102.47;;;31.30;;
37299;SDS011;23184;51.902;12.836;2024-01-06T12:25:21;108.85;;;30.30;;
37299;SDS011;23184;51.902;12.836;2024-01-06T12:27:47;130.18;;;34.47;;
37299;SDS011;23184;51.902;12.836;2024-01-06T12:30:18;112.90;;;31.08;;
37299;SDS011;23184;51.902;12.836;2024-01-06T12:32:47;110.25;;;31.40;;
37299;SDS011;23184;51.902;12.836;2024-01-06T12:35:14;109.72;;;32.58;;
37299;SDS011;23184;51.902;12.836;2024-01-06T12:37:43;130.13;;;32.95;;
37299;SDS011;23184;51.902;12.836;2024-01-06T12:40:10;120.70;;;31.98;;
37299;SDS011;23184;51.902;12.836;2024-01-06T12:42:37;114.68;;;33.13;;
37299;SDS011;23184;51.902;12.836;2024-01-06T12:45:05;107.38;;;32.08;;
37299;SDS011;23184;51.902;12.836;2024-01-06T12:47:32;104.00;;;33.63;;
37299;SDS011;23184;51.902;12.836;2024-01-06T12:49:59;119.55;;;35.40;;
37299;SDS011;23184;51.902;12.836;2024-01-06T12:52:25;102.05;;;31.58;;
37299;SDS011;23184;51.902;12.836;2024-01-06T12:54:51;109.22;;;31.52;;
37299;SDS011;23184;51.902;12.836;2024-01-06T12:57:17;105.50;;;31.05;;
37299;SDS011;23184;51.902;12.836;2024-01-06T12:59:43;111.28;;;34.50;;
37299;SDS011;23184;51.902;12.836;2024-01-06T13:02:08;104.03;;;31.00;;
37299;SDS011;23184;51.902;12.836;2024-01-06T13:04:34;98.72;;;32.78;;
37299;SDS011;23184;51.902;12.836;2024-01-06T13:07:00;110.85;;;35.13;;
37299;SDS011;23184;51.902;12.836;2024-01-06T13:09:26;106.38;;;34.63;;
37299;SDS011;23184;51.902;12.836;2024-01-06T13:11:52;112.18;;;32.97;;
37299;SDS011;23184;51.902;12.836;2024-01-06T13:14:20;99.78;;;31.88;;
37299;SDS011;23184;51.902;12.836;2024-01-06T13:16:46;102.15;;;33.10;;
37299;SDS011;23184;51.902;12.836;2024-01-06T13:19:11;107.03;;;32.53;;
37299;SDS011;23184;51.902;12.836;2024-01-06T13:21:37;110.45;;;33.05;;
37299;SDS011;23184;51.902;12.836;2024-01-06T13:24:04;107.40;;;31.65;;
37299;SDS011;23184;51.902;12.836;2024-01-06T13:26:31;107.50;;;32.22;;
37299;SDS011;23184;51.902;12.836;2024-01-06T13:28:56;102.72;;;30.75;;
37299;SDS011;23184;51.902;12.836;2024-01-06T13:31:22;108.07;;;34.38;;
37299;SDS011;23184;51.902;12.836;2024-01-06T13:33:48;102.57;;;32.35;;
37299;SDS011;23184;51.902;12.836;2024-01-06T13:36:16;98.80;;;31.17;;
37299;SDS011;23184;51.902;12.836;2024-01-06T13:38:43;93.82;;;32.08;;
37299;SDS011;23184;51.902;12.836;2024-01-06T13:41:10;94.93;;;30.70;;
37299;SDS011;23184;51.902;12.836;2024-01-06T13:43:35;88.63;;;29.27;;
37299;SDS011;23184;51.902;12.836;2024-01-06T13:46:01;100.03;;;33.17;;
37299;SDS011;23184;51.902;12.836;2024-01-06T13:48:26;98.50;;;32.00;;
37299;SDS011;23184;51.902;12.836;2024-01-06T13:50:52;111.97;;;33.03;;
37299;SDS011;23184;51.902;12.836;2024-01-06T13:53:17;103.15;;;32.42;;
37299;SDS011;23184;51.902;12.836;2024-01-06T13:55:43;103.72;;;32.53;;
37299;SDS011;23184;51.902;12.836;2024-01-06T13:58:09;109.22;;;33.78;;
37299;SDS011;23184;51.902;12.836;2024-01-06T14:00:35;113.13;;;32.22;;
37299;SDS011;23184;51.902;12.836;2024-01-06T14:03:01;117.22;;;34.40;;
37299;SDS011;23184;51.902;12.836;2024-01-06T14:05:27;116.68;;;33.28;;
37299;SDS011;23184;51.902;12.836;2024-01-06T14:07:53;136.48;;;33.95;;